Overview Statistics Trail Chart Weather Telemetry Raw packets
 

This is the latest recevied weather packets stored in our database for station/object KG5CK-1. If no packets are shown the sender has not sent any weather packets the latest 10 day(s).

<< 25 26 27 28 29 30 31 >>
Time Temp. Humidity Pressure Rain* Wind** Luminosity Snow
1788655982 33.33° C 56% 1007.3 hPa 0 mm 1.79 m/s, 118° - -
1788655923 33.33° C 56% 1007.3 hPa 0 mm 1.79 m/s, 118° - -
1788655862 33.33° C 56% 1007.3 hPa 0 mm 1.79 m/s, 118° - -
1788655802 33.33° C 56% 1007 hPa 0 mm 0.45 m/s, 72° - -
1788655742 33.33° C 56% 1007 hPa 0 mm 0.45 m/s, 72° - -
1788655683 33.33° C 56% 1007 hPa 0 mm 0.45 m/s, 72° - -
1788655623 33.33° C 56% 1007 hPa 0 mm 0.45 m/s, 72° - -
1788655562 33.33° C 56% 1007 hPa 0 mm 0.45 m/s, 72° - -
1788655502 33.89° C 55% 1006.9 hPa 0 mm 1.79 m/s, 185° - -
1788655442 33.89° C 55% 1006.9 hPa 0 mm 1.79 m/s, 185° - -
1788655383 33.89° C 55% 1006.9 hPa 0 mm 1.79 m/s, 185° - -
1788655323 33.89° C 55% 1006.9 hPa 0 mm 1.79 m/s, 185° - -
1788655263 33.89° C 55% 1006.9 hPa 0 mm 1.79 m/s, 185° - -
1788655203 34.44° C 54% 1007 hPa 0 mm 2.24 m/s, 168° - -
1788655143 34.44° C 54% 1007 hPa 0 mm 2.24 m/s, 168° - -
1788655083 34.44° C 54% 1007 hPa 0 mm 2.24 m/s, 168° - -
1788655023 34.44° C 54% 1007 hPa 0 mm 2.24 m/s, 168° - -
1788654962 34.44° C 54% 1007 hPa 0 mm 2.24 m/s, 168° - -
1788654902 34.44° C 52% 1007 hPa 0 mm 1.34 m/s, 134° - -
1788654843 34.44° C 52% 1007 hPa 0 mm 1.34 m/s, 134° - -
1788654782 34.44° C 52% 1007 hPa 0 mm 1.34 m/s, 134° - -
1788654722 34.44° C 52% 1007 hPa 0 mm 1.34 m/s, 134° - -
1788654663 34.44° C 52% 1007 hPa 0 mm 1.34 m/s, 134° - -
1788654603 35° C 52% 1007 hPa 0 mm 1.79 m/s, 129° - -
1788654555 35° C 52% 1007 hPa 0 mm 1.79 m/s, 129° - -

* Rain latest hour (hover to see other rain measurements)
** Current wind speed in m/s (hover to see current wind gust speed)